Time;durP1;ratioP1;P1;durP2;ratioP2;P2;SDS_P1;SDS_P2;PMS_P1;PMS_P2;Temp;Humidity;BMP_temperature;BMP_pressure;BME280_temperature;BME280_humidity;BME280_pressure;Samples;Min_cycle;Max_cycle;Signal;HPM_P1;HPM_P2
2022/12/10 00:02:04;;;;;;;;;68.50;47.50;;;;;1.05;79.05;100782.34;5013622;28;11665;-68
2022/12/10 00:04:30;;;;;;;;;57.25;47.25;;;;;0.99;79.36;100773.13;4996928;28;11700;-67
2022/12/10 00:06:57;;;;;;;;;53.25;47.00;;;;;0.99;79.63;100782.91;5001552;28;11620;-67
2022/12/10 00:09:23;;;;;;;;;60.25;48.25;;;;;1.00;79.79;100789.88;5000287;28;11616;-68
2022/12/10 00:11:50;;;;;;;;;64.25;50.00;;;;;0.93;79.78;100789.59;4985155;28;11657;-67
2022/12/10 00:14:16;;;;;;;;;62.25;49.75;;;;;0.93;79.89;100786.94;4979437;28;11733;-68
2022/12/10 00:16:43;;;;;;;;;56.75;47.50;;;;;0.94;79.76;100788.59;4993483;28;11654;-67
2022/12/10 00:19:10;;;;;;;;;64.75;48.00;;;;;0.95;80.21;100792.09;4995633;28;11647;-67
2022/12/10 00:21:37;;;;;;;;;51.75;45.50;;;;;0.92;80.02;100779.94;4998869;28;11630;-66
2022/12/10 00:24:04;;;;;;;;;60.50;50.00;;;;;0.94;80.43;100782.47;4998846;28;11624;-67
2022/12/10 00:26:38;;;;;;;;;65.75;49.00;;;;;0.92;80.22;100781.75;4998476;28;11737;-67
2022/12/10 00:29:06;;;;;;;;;62.50;47.50;;;;;0.93;80.13;100783.44;4993148;28;11797;-67
2022/12/10 00:31:35;;;;;;;;;60.50;46.25;;;;;0.91;79.99;100786.22;4989646;28;11673;-67
2022/12/10 00:34:04;;;;;;;;;56.00;48.50;;;;;0.89;80.26;100785.53;4993507;28;11648;-67
2022/12/10 00:36:42;;;;;;;;;38.75;36.50;;;;;0.91;80.59;100786.22;4975466;28;11767;-67
2022/12/10 00:39:10;;;;;;;;;50.00;41.50;;;;;0.91;80.09;100786.22;5002832;28;11616;-67
2022/12/10 00:41:38;;;;;;;;;58.50;44.25;;;;;0.89;80.16;100784.66;4977999;28;12352;-67
2022/12/10 00:44:05;;;;;;;;;57.75;48.00;;;;;0.81;80.30;100779.19;4990108;28;11738;-66
2022/12/10 00:46:32;;;;;;;;;59.25;48.00;;;;;0.81;81.06;100787.13;5015671;28;11677;-67
2022/12/10 00:49:00;;;;;;;;;54.75;43.50;;;;;0.81;80.52;100785.34;5003023;28;11610;-68
2022/12/10 00:51:27;;;;;;;;;47.50;39.25;;;;;0.79;80.59;100784.63;5013367;28;11605;-67
2022/12/10 00:53:58;;;;;;;;;49.25;37.00;;;;;0.83;81.03;100778.09;5000985;28;11657;-67
2022/12/10 00:56:28;;;;;;;;;42.00;40.25;;;;;0.83;80.69;100787.84;4995827;28;11637;-67
2022/12/10 00:58:54;;;;;;;;;52.50;44.50;;;;;0.77;80.90;100785.72;5008619;28;11758;-67
2022/12/10 01:01:33;;;;;;;;;56.25;44.00;;;;;0.70;80.94;100782.78;5012478;28;11603;-67
2022/12/10 01:04:06;;;;;;;;;45.75;42.25;;;;;0.64;80.92;100786.78;4977555;28;11700;-66
2022/12/10 01:06:36;;;;;;;;;43.25;34.50;;;;;0.69;81.43;100787.25;5012846;28;11741;-67
2022/12/10 01:09:05;;;;;;;;;53.00;45.00;;;;;0.68;81.33;100792.66;4980298;28;11700;-67
2022/12/10 01:11:34;;;;;;;;;46.25;38.00;;;;;0.69;81.24;100792.53;4997431;28;11691;-67
2022/12/10 01:14:01;;;;;;;;;60.25;45.75;;;;;0.62;81.25;100794.03;5012915;28;12321;-67
2022/12/10 01:16:27;;;;;;;;;44.25;39.25;;;;;0.59;81.37;100798.75;4999557;28;11645;-66
2022/12/10 01:18:56;;;;;;;;;53.00;44.25;;;;;0.57;81.24;100806.84;4997290;28;11694;-67
2022/12/10 01:21:24;;;;;;;;;56.50;43.25;;;;;0.60;81.56;100811.00;4993305;28;11616;-67
2022/12/10 01:23:51;;;;;;;;;44.25;40.25;;;;;0.62;80.89;100817.03;4992201;28;11682;-67
2022/12/10 01:26:21;;;;;;;;;49.50;39.75;;;;;0.53;81.20;100818.66;5009847;28;11620;-67
2022/12/10 01:28:48;;;;;;;;;47.00;40.00;;;;;0.49;81.82;100820.72;5011107;28;11601;-67
2022/12/10 01:31:19;;;;;;;;;40.00;34.50;;;;;0.53;82.03;100821.31;5006689;28;11650;-67
2022/12/10 01:33:46;;;;;;;;;52.50;39.75;;;;;0.47;81.49;100813.88;4977239;28;11629;-67
2022/12/10 01:36:16;;;;;;;;;42.50;36.75;;;;;0.50;82.29;100813.63;4992973;28;11725;-67
2022/12/10 01:38:43;;;;;;;;;41.75;39.25;;;;;0.53;82.33;100818.66;5008956;28;11689;-67
2022/12/10 01:41:17;;;;;;;;;56.50;46.00;;;;;0.52;81.89;100819.59;5005658;28;11653;-67
2022/12/10 01:43:49;;;;;;;;;40.00;36.25;;;;;0.49;82.31;100822.53;4990693;28;11673;-67
2022/12/10 01:46:16;;;;;;;;;54.00;45.00;;;;;0.53;82.26;100820.44;5006097;28;11640;-67
2022/12/10 01:48:42;;;;;;;;;42.50;32.25;;;;;0.54;81.94;100827.44;5000105;28;11655;-67
2022/12/10 01:51:11;;;;;;;;;48.25;33.75;;;;;0.55;82.21;100829.13;5000943;28;11714;-67
2022/12/10 01:53:37;;;;;;;;;52.50;44.75;;;;;0.52;82.26;100824.06;5008814;28;11637;-67
2022/12/10 01:56:04;;;;;;;;;52.25;45.75;;;;;0.46;82.36;100828.09;5005726;28;11698;-67
2022/12/10 01:58:32;;;;;;;;;41.00;34.25;;;;;0.46;82.75;100828.94;4987691;28;11626;-66
2022/12/10 02:01:13;;;;;;;;;47.75;42.00;;;;;0.47;82.70;100830.59;4988150;28;11637;-66
2022/12/10 02:04:08;;;;;;;;;46.25;33.50;;;;;0.52;82.56;100832.00;4998083;28;12323;-67
2022/12/10 02:07:01;;;;;;;;;44.75;36.00;;;;;0.60;83.03;100832.22;5009949;28;11634;-67
2022/12/10 02:09:38;;;;;;;;;47.50;43.25;;;;;0.57;83.02;100827.16;5003694;28;11622;-67
2022/12/10 02:12:17;;;;;;;;;53.75;37.25;;;;;0.58;83.08;100835.00;5003935;28;11644;-67
2022/12/10 02:14:50;;;;;;;;;43.50;34.75;;;;;0.66;82.92;100832.53;4986385;28;11683;-67
2022/12/10 02:17:22;;;;;;;;;52.00;43.75;;;;;0.69;82.93;100832.28;5009489;28;11621;-67
2022/12/10 02:20:10;;;;;;;;;53.50;44.75;;;;;0.70;82.90;100831.31;5005394;28;11596;-67
2022/12/10 02:22:46;;;;;;;;;47.00;39.00;;;;;0.74;82.76;100832.72;4977892;28;11690;-67
2022/12/10 02:25:16;;;;;;;;;44.50;38.00;;;;;0.79;82.83;100834.13;4999638;28;11630;-68
2022/12/10 02:28:06;;;;;;;;;55.25;41.25;;;;;0.79;82.73;100831.50;4973683;28;11642;-67
2022/12/10 02:30:36;;;;;;;;;58.50;36.25;;;;;0.76;82.62;100824.63;5002348;28;11609;-67
2022/12/10 02:33:07;;;;;;;;;52.75;39.25;;;;;0.81;83.05;100832.19;4995514;28;11837;-66
2022/12/10 02:35:38;;;;;;;;;47.75;42.75;;;;;0.85;82.47;100831.81;4999908;28;12326;-67
2022/12/10 02:38:12;;;;;;;;;49.75;39.00;;;;;0.78;82.21;100830.66;4994163;28;12117;-67
2022/12/10 02:40:46;;;;;;;;;55.00;42.50;;;;;0.82;82.54;100828.59;4994398;28;11632;-67
2022/12/10 02:43:14;;;;;;;;;62.50;42.50;;;;;0.82;82.46;100839.19;5008404;28;11634;-66
2022/12/10 02:45:44;;;;;;;;;55.00;44.00;;;;;0.82;82.23;100837.38;5002123;28;11614;-66
2022/12/10 02:48:13;;;;;;;;;64.75;48.00;;;;;0.81;82.39;100832.19;4995605;28;11615;-66
2022/12/10 02:50:42;;;;;;;;;55.25;44.50;;;;;0.79;82.41;100827.03;5004083;28;11615;-66
2022/12/10 02:53:08;;;;;;;;;51.25;45.00;;;;;0.81;82.27;100822.44;4995609;28;12391;-66
2022/12/10 02:55:54;;;;;;;;;52.75;46.00;;;;;0.82;82.58;100823.28;5009246;28;11721;-67
2022/12/10 02:58:36;;;;;;;;;51.25;43.25;;;;;0.86;82.42;100828.19;4993481;28;11679;-68
2022/12/10 03:01:19;;;;;;;;;60.00;41.25;;;;;0.82;82.32;100821.47;4989199;28;11785;-67
2022/12/10 03:03:52;;;;;;;;;53.50;42.75;;;;;0.82;82.19;100820.63;4980677;28;11662;-67
2022/12/10 03:06:27;;;;;;;;;60.25;48.50;;;;;0.84;81.90;100826.63;5002591;28;11704;-68
2022/12/10 03:09:12;;;;;;;;;59.00;45.50;;;;;0.83;82.31;100819.66;5010736;28;11591;-66
2022/12/10 03:11:41;;;;;;;;;47.75;44.50;;;;;0.85;81.89;100825.66;4980808;28;11655;-66
2022/12/10 03:14:15;;;;;;;;;45.75;42.00;;;;;0.85;82.02;100820.34;4982036;28;11652;-66
2022/12/10 03:16:47;;;;;;;;;48.75;45.00;;;;;0.86;82.03;100824.69;4994142;28;11592;-66
2022/12/10 03:19:18;;;;;;;;;56.75;44.50;;;;;0.87;81.59;100832.50;4993681;28;11625;-66
2022/12/10 03:21:47;;;;;;;;;70.50;46.25;;;;;0.87;82.01;100832.50;5062962;22;11591;-67
2022/12/10 03:24:16;;;;;;;;;52.25;43.00;;;;;0.90;81.95;100823.47;5053867;28;11678;-68
2022/12/10 03:26:47;;;;;;;;;49.50;44.50;;;;;0.93;81.65;100829.34;5052536;28;11575;-67
2022/12/10 03:29:20;;;;;;;;;49.75;40.50;;;;;0.95;81.72;100827.38;5043495;28;11632;-66
2022/12/10 03:31:48;;;;;;;;;60.75;47.50;;;;;0.96;81.67;100828.22;5047702;28;11712;-67
2022/12/10 03:34:15;;;;;;;;;62.25;46.00;;;;;0.93;81.41;100826.69;5038047;28;11578;-65
2022/12/10 03:36:42;;;;;;;;;63.25;46.75;;;;;0.83;81.22;100819.66;5044126;28;11544;-66
2022/12/10 03:39:09;;;;;;;;;66.00;51.75;;;;;0.74;81.35;100823.94;5047686;28;11611;-65
2022/12/10 03:41:36;;;;;;;;;61.00;48.75;;;;;0.71;81.58;100824.19;5050265;28;11658;-65
2022/12/10 03:44:02;;;;;;;;;65.75;45.50;;;;;0.69;81.81;100816.38;5050088;28;11678;-66
2022/12/10 03:46:30;;;;;;;;;50.00;41.75;;;;;0.74;81.85;100813.34;5042002;28;12313;-66
2022/12/10 03:48:59;;;;;;;;;70.25;48.50;;;;;0.70;82.06;100812.75;5038250;28;11644;-65
2022/12/10 03:51:26;;;;;;;;;61.50;45.25;;;;;0.71;82.12;100814.44;5050870;28;11730;-66
2022/12/10 03:53:52;;;;;;;;;66.75;50.00;;;;;0.74;82.09;100818.63;5040598;28;11713;-67
2022/12/10 03:56:20;;;;;;;;;53.25;45.25;;;;;0.76;82.33;100826.44;5050079;28;11586;-66
2022/12/10 03:58:47;;;;;;;;;65.50;48.50;;;;;0.71;82.01;100816.25;5047744;28;11611;-67
2022/12/10 04:01:14;;;;;;;;;66.50;47.25;;;;;0.66;82.22;100818.44;5051878;28;11736;-66
2022/12/10 04:03:42;;;;;;;;;54.50;45.25;;;;;0.69;82.48;100821.69;5052779;28;11581;-67
2022/12/10 04:06:14;;;;;;;;;57.50;47.50;;;;;0.67;81.89;100823.59;5044090;28;11581;-67
2022/12/10 04:08:41;;;;;;;;;61.50;48.75;;;;;0.69;82.34;100819.03;5046161;28;11575;-67
2022/12/10 04:11:09;;;;;;;;;63.00;49.00;;;;;0.72;82.21;100821.41;5042363;28;11693;-68
2022/12/10 04:16:26;;;;;;;;;69.25;48.25;;;;;0.77;81.94;100815.72;5049267;28;11734;-66
2022/12/10 04:18:55;;;;;;;;;52.50;46.00;;;;;0.77;82.16;100828.13;5038520;28;11675;-65
2022/12/10 04:27:04;;;;;;;;;61.25;46.00;;;;;0.74;82.25;100822.13;5045058;28;11568;-67
2022/12/10 04:29:31;;;;;;;;;54.50;46.00;;;;;0.76;81.95;100826.44;5031820;28;11738;-66
2022/12/10 04:31:58;;;;;;;;;67.00;52.00;;;;;0.77;82.25;100828.13;5045036;28;11554;-67
2022/12/10 04:34:25;;;;;;;;;60.25;48.00;;;;;0.76;82.18;100826.44;5044470;28;11738;-66
2022/12/10 04:36:52;;;;;;;;;66.50;48.25;;;;;0.69;81.82;100818.19;5043683;28;11589;-66
2022/12/10 04:39:19;;;;;;;;;53.00;45.75;;;;;0.66;82.22;100826.41;5033954;28;11576;-67
2022/12/10 04:41:48;;;;;;;;;60.75;46.00;;;;;0.58;82.15;100832.34;5037061;28;12364;-67
2022/12/10 04:44:15;;;;;;;;;48.00;45.00;;;;;0.50;82.25;100824.22;5038260;28;11714;-67
2022/12/10 04:46:41;;;;;;;;;42.50;34.00;;;;;0.51;82.31;100828.53;5043223;28;11598;-66
2022/12/10 04:49:08;;;;;;;;;53.50;43.75;;;;;0.52;82.58;100824.91;5044202;28;11597;-67
2022/12/10 04:51:34;;;;;;;;;55.50;39.75;;;;;0.51;82.48;100817.09;5047873;28;11604;-67
2022/12/10 04:54:01;;;;;;;;;37.00;36.00;;;;;0.45;82.31;100824.59;5037407;28;11648;-66
2022/12/10 04:56:28;;;;;;;;;48.00;40.75;;;;;0.44;82.86;100828.19;5035974;28;11601;-68
2022/12/10 04:58:58;;;;;;;;;54.25;41.00;;;;;0.41;82.91;100822.34;5034164;28;11679;-66
2022/12/10 05:01:26;;;;;;;;;38.00;31.50;;;;;0.41;82.80;100831.13;5043763;28;11676;-67
2022/12/10 05:03:54;;;;;;;;;47.00;31.75;;;;;0.47;82.76;100832.41;5036097;28;11613;-65
2022/12/10 05:06:20;;;;;;;;;45.00;34.75;;;;;0.45;82.79;100834.34;5032326;28;12314;-67
2022/12/10 05:08:47;;;;;;;;;40.50;33.00;;;;;0.52;83.14;100829.38;5039877;28;11686;-67
2022/12/10 05:11:17;;;;;;;;;38.00;32.75;;;;;0.55;82.85;100832.59;5040438;28;11597;-65
2022/12/10 05:13:44;;;;;;;;;33.75;28.00;;;;;0.55;82.54;100837.06;5039425;28;11686;-68
2022/12/10 05:16:14;;;;;;;;;39.25;33.25;;;;;0.55;83.05;100839.72;5040823;28;11718;-68
2022/12/10 05:18:41;;;;;;;;;48.75;40.50;;;;;0.54;82.50;100830.09;5032605;28;11791;-67
2022/12/10 05:21:12;;;;;;;;;37.00;29.50;;;;;0.52;82.73;100837.31;5041630;28;11575;-67
2022/12/10 05:23:42;;;;;;;;;41.75;34.50;;;;;0.50;82.46;100842.75;5032646;28;11704;-68
2022/12/10 05:26:12;;;;;;;;;40.00;33.75;;;;;0.41;82.90;100836.41;5041363;28;11584;-68
2022/12/10 05:28:42;;;;;;;;;33.00;32.00;;;;;0.35;82.57;100839.56;5044984;28;11589;-68
2022/12/10 05:31:16;;;;;;;;;41.50;34.50;;;;;0.31;83.00;100837.31;5049271;28;11596;-65
2022/12/10 05:33:44;;;;;;;;;39.50;30.00;;;;;0.32;82.96;100826.56;5047397;28;11590;-66
2022/12/10 05:36:13;;;;;;;;;30.25;17.50;;;;;0.38;83.08;100836.66;5044182;28;11576;-66
2022/12/10 05:38:40;;;;;;;;;44.50;36.50;;;;;0.38;83.24;100831.38;5040288;28;11718;-66
2022/12/10 05:41:13;;;;;;;;;37.25;34.25;;;;;0.40;83.32;100829.44;5047939;28;11572;-66
2022/12/10 05:43:40;;;;;;;;;41.50;35.00;;;;;0.35;83.33;100828.97;5045331;28;11697;-65
2022/12/10 05:46:10;;;;;;;;;36.25;28.50;;;;;0.37;83.27;100828.88;5051787;28;11560;-65
2022/12/10 05:48:37;;;;;;;;;33.75;29.50;;;;;0.39;83.29;100835.69;5051249;28;11642;-67
2022/12/10 05:51:08;;;;;;;;;36.75;28.75;;;;;0.44;83.22;100835.31;5042415;28;11589;-68
2022/12/10 05:53:35;;;;;;;;;34.75;27.50;;;;;0.47;82.83;100830.59;5044080;28;11589;-67
2022/12/10 05:56:08;;;;;;;;;35.25;26.00;;;;;0.50;83.17;100840.09;5035329;28;11604;-65
2022/12/10 05:58:35;;;;;;;;;36.00;30.50;;;;;0.49;83.15;100841.06;5031957;28;11610;-66
2022/12/10 06:01:07;;;;;;;;;32.75;27.00;;;;;0.47;82.79;100835.88;5033425;28;11599;-66
2022/12/10 06:03:33;;;;;;;;;26.25;22.00;;;;;0.47;83.28;100843.00;5033030;28;11588;-65
2022/12/10 06:06:02;;;;;;;;;31.50;25.50;;;;;0.44;82.99;100843.25;5037300;28;11584;-67
2022/12/10 06:08:29;;;;;;;;;32.00;25.25;;;;;0.44;83.02;100849.38;5043506;28;11583;-67
2022/12/10 06:10:57;;;;;;;;;32.25;31.50;;;;;0.47;82.69;100854.44;5038293;28;11594;-66
2022/12/10 06:13:24;;;;;;;;;26.00;22.00;;;;;0.45;82.93;100851.09;5031191;28;11589;-67
2022/12/10 06:15:50;;;;;;;;;28.25;21.50;;;;;0.44;82.66;100859.13;5035120;28;11571;-68
2022/12/10 06:18:17;;;;;;;;;28.25;25.50;;;;;0.44;83.04;100854.69;5047633;28;11550;-67
2022/12/10 06:20:43;;;;;;;;;29.00;23.75;;;;;0.45;82.47;100853.72;5044753;28;11561;-67
2022/12/10 06:23:12;;;;;;;;;31.75;25.50;;;;;0.49;82.91;100856.97;5051001;28;11554;-67
2022/12/10 06:25:39;;;;;;;;;25.75;20.50;;;;;0.49;83.00;100855.16;5047421;28;11551;-65
2022/12/10 06:28:07;;;;;;;;;30.25;29.50;;;;;0.46;82.44;100852.75;5045805;28;11661;-65
2022/12/10 06:30:34;;;;;;;;;26.25;22.25;;;;;0.45;82.57;100845.78;5037762;28;11568;-66
2022/12/10 06:33:01;;;;;;;;;33.50;28.50;;;;;0.41;82.69;100851.47;5052305;28;11553;-67
2022/12/10 06:35:28;;;;;;;;;30.75;23.50;;;;;0.40;82.53;100855.91;5030607;28;11698;-66
2022/12/10 06:37:54;;;;;;;;;42.25;31.25;;;;;0.33;82.10;100861.88;5037231;28;11550;-65
2022/12/10 06:40:20;;;;;;;;;21.75;19.00;;;;;0.23;83.18;100867.06;5043253;28;11566;-64
2022/12/10 06:42:50;;;;;;;;;30.75;23.00;;;;;0.28;83.12;100871.97;5042691;28;11529;-66
2022/12/10 06:45:17;;;;;;;;;27.00;21.25;;;;;0.32;83.12;100876.88;5039984;28;11602;-66
2022/12/10 06:47:43;;;;;;;;;25.25;22.75;;;;;0.35;82.74;100874.00;5049923;28;11556;-65
2022/12/10 06:50:10;;;;;;;;;30.50;26.50;;;;;0.35;82.56;100876.63;5034558;28;11626;-65
2022/12/10 06:52:38;;;;;;;;;29.00;24.00;;;;;0.35;82.75;100881.94;5030860;28;11538;-64
2022/12/10 06:55:05;;;;;;;;;34.25;24.50;;;;;0.37;83.13;100880.00;5029668;28;11592;-65
2022/12/10 06:57:31;;;;;;;;;27.75;25.75;;;;;0.39;82.84;100879.88;5045711;28;11573;-66
2022/12/10 06:59:58;;;;;;;;;27.00;19.25;;;;;0.40;82.68;100881.53;5042831;28;11567;-66
2022/12/10 07:02:24;;;;;;;;;31.00;29.00;;;;;0.39;82.86;100887.81;5050630;28;11573;-65
2022/12/10 07:04:51;;;;;;;;;28.50;22.50;;;;;0.44;82.69;100890.91;5043766;28;11626;-65
2022/12/10 07:07:17;;;;;;;;;26.75;26.00;;;;;0.47;82.86;100886.22;5040617;28;11589;-65
2022/12/10 07:09:43;;;;;;;;;22.75;19.75;;;;;0.51;82.68;100892.09;5042614;28;12327;-67
2022/12/10 07:12:10;;;;;;;;;30.50;27.75;;;;;0.41;82.73;100889.38;5022737;28;12442;-66
2022/12/10 07:14:36;;;;;;;;;32.25;27.50;;;;;0.42;82.77;100887.56;5032502;28;11598;-66
2022/12/10 07:17:05;;;;;;;;;30.25;28.50;;;;;0.45;83.26;100892.63;5045372;28;11591;-65
2022/12/10 07:19:31;;;;;;;;;23.25;21.75;;;;;0.47;82.95;100895.97;5030993;28;11687;-65
2022/12/10 07:21:57;;;;;;;;;25.50;25.25;;;;;0.46;82.71;100902.25;5035469;28;11570;-71
2022/12/10 07:24:24;;;;;;;;;28.50;23.50;;;;;0.76;85.38;100895.31;5035708;28;11562;-68
2022/12/10 07:26:52;;;;;;;;;24.00;21.50;;;;;0.76;84.03;100901.47;5035701;28;12246;-65
2022/12/10 07:29:20;;;;;;;;;35.75;28.50;;;;;0.71;83.36;100920.41;5028934;28;11672;-66
2022/12/10 07:31:48;;;;;;;;;28.25;23.50;;;;;0.62;83.23;100909.75;5031387;28;11586;-67
2022/12/10 07:34:14;;;;;;;;;35.75;29.00;;;;;0.54;82.85;100899.78;5042514;28;11681;-67
2022/12/10 07:36:41;;;;;;;;;25.75;23.00;;;;;0.49;82.49;100908.13;5043361;28;11591;-65
2022/12/10 07:39:09;;;;;;;;;32.00;26.75;;;;;0.48;82.77;100908.22;5046785;28;11548;-66
2022/12/10 07:41:36;;;;;;;;;28.25;21.50;;;;;0.47;82.97;100901.25;5045223;28;11726;-66
2022/12/10 07:44:06;;;;;;;;;29.00;22.25;;;;;0.51;82.97;100901.84;5043092;28;11584;-67
2022/12/10 07:46:33;;;;;;;;;29.00;21.00;;;;;0.54;82.89;100905.09;5037717;28;11561;-67
2022/12/10 07:49:01;;;;;;;;;26.75;20.00;;;;;0.58;82.79;100900.38;5045671;28;11622;-66
2022/12/10 07:51:29;;;;;;;;;23.00;20.75;;;;;0.61;83.10;100906.25;5039182;28;12275;-66
2022/12/10 07:53:55;;;;;;;;;33.00;27.75;;;;;0.59;82.21;100910.00;5028702;28;11562;-66
2022/12/10 07:56:24;;;;;;;;;29.50;22.00;;;;;0.57;82.52;100907.50;5028433;28;11617;-66
2022/12/10 07:58:51;;;;;;;;;28.75;22.25;;;;;0.60;83.08;100904.56;5028356;28;11601;-67
2022/12/10 08:01:22;;;;;;;;;25.50;25.00;;;;;0.63;82.39;100908.78;5038005;28;11576;-65
2022/12/10 08:03:49;;;;;;;;;33.00;27.00;;;;;0.47;82.38;100910.03;5040610;28;11539;-66
2022/12/10 08:06:18;;;;;;;;;30.50;24.75;;;;;0.51;82.84;100915.94;5045492;28;11603;-66
2022/12/10 08:08:46;;;;;;;;;29.75;25.00;;;;;0.55;82.49;100913.88;5052128;28;11683;-68
2022/12/10 08:11:13;;;;;;;;;25.50;21.25;;;;;0.59;82.68;100917.94;5048533;28;11723;-66
2022/12/10 08:13:41;;;;;;;;;27.25;20.00;;;;;0.63;82.31;100919.38;5045387;28;11566;-66
2022/12/10 08:16:17;;;;;;;;;29.50;20.50;;;;;0.67;82.48;100920.78;5039064;28;11622;-66
2022/12/10 08:18:44;;;;;;;;;33.75;29.00;;;;;0.69;82.68;100921.53;5052696;28;11558;-66
2022/12/10 08:21:17;;;;;;;;;21.25;19.50;;;;;0.70;82.31;100928.50;5049186;28;11560;-65
2022/12/10 08:23:44;;;;;;;;;36.50;31.25;;;;;0.67;82.49;100932.22;5036810;28;11561;-66
2022/12/10 08:26:15;;;;;;;;;29.00;26.75;;;;;0.62;81.85;100936.22;5046645;28;11697;-66
2022/12/10 08:28:42;;;;;;;;;25.25;20.00;;;;;0.60;82.24;100941.63;5040836;28;11561;-66
2022/12/10 08:31:11;;;;;;;;;28.50;24.25;;;;;0.60;82.42;100933.69;5042098;28;11559;-63
2022/12/10 08:33:38;;;;;;;;;30.75;27.00;;;;;0.56;82.50;100942.03;5045612;28;11542;-63
2022/12/10 08:36:08;;;;;;;;;31.25;24.00;;;;;0.54;82.45;100944.81;5050937;28;11580;-64
2022/12/10 08:38:35;;;;;;;;;31.50;29.25;;;;;0.51;82.32;100946.88;5038596;28;11639;-65
2022/12/10 08:41:21;;;;;;;;;31.75;28.00;;;;;0.45;82.52;100951.72;5041151;28;11585;-66
2022/12/10 08:43:50;;;;;;;;;34.00;25.00;;;;;0.46;82.22;100956.03;5046949;28;11575;-66
2022/12/10 08:46:22;;;;;;;;;33.25;26.75;;;;;0.51;82.76;100960.94;5051602;28;11600;-66
2022/12/10 08:48:49;;;;;;;;;35.25;31.25;;;;;0.48;82.88;100956.72;5047762;28;11678;-66
2022/12/10 08:51:17;;;;;;;;;37.75;27.50;;;;;0.46;82.66;100965.78;5041000;28;11569;-65
2022/12/10 08:53:44;;;;;;;;;36.75;30.00;;;;;0.49;82.81;100962.91;5044379;28;11648;-65
2022/12/10 08:56:11;;;;;;;;;26.75;23.00;;;;;0.61;84.22;100974.25;5043093;28;12439;-65
2022/12/10 08:58:38;;;;;;;;;46.75;33.25;;;;;0.63;83.24;100969.69;5044035;28;11553;-65
2022/12/10 09:01:13;;;;;;;;;35.00;24.75;;;;;0.63;82.78;100981.13;5044172;28;11573;-66
2022/12/10 09:03:40;;;;;;;;;25.25;19.75;;;;;0.68;83.20;100978.09;5034021;28;11594;-66
2022/12/10 09:06:10;;;;;;;;;37.00;30.75;;;;;0.69;82.99;100979.81;5042074;28;11604;-64
2022/12/10 09:08:37;;;;;;;;;23.75;19.50;;;;;0.71;82.73;100977.84;5043646;28;11641;-66
2022/12/10 09:11:08;;;;;;;;;30.50;25.00;;;;;0.62;82.48;100974.16;5045307;28;11637;-66
2022/12/10 09:13:35;;;;;;;;;33.75;32.50;;;;;0.54;82.41;100973.94;5034405;28;11584;-66
2022/12/10 09:16:02;;;;;;;;;37.25;30.00;;;;;0.54;82.34;100979.25;5041381;28;11568;-66
2022/12/10 09:18:29;;;;;;;;;33.25;27.25;;;;;0.52;82.48;100980.31;5045229;28;11594;-66
2022/12/10 09:20:55;;;;;;;;;35.75;23.00;;;;;0.48;82.55;100979.72;5050150;28;11676;-66
2022/12/10 09:23:22;;;;;;;;;30.50;25.50;;;;;0.51;82.97;100976.00;5050265;28;12296;-65
2022/12/10 09:25:48;;;;;;;;;39.75;34.75;;;;;0.52;82.88;100977.69;5047319;28;11703;-66
2022/12/10 09:28:15;;;;;;;;;33.75;30.50;;;;;0.52;82.92;100989.09;5050492;28;11697;-63
2022/12/10 09:30:42;;;;;;;;;36.50;30.25;;;;;0.53;82.74;100996.13;5043171;28;11596;-66
2022/12/10 09:33:08;;;;;;;;;40.75;33.75;;;;;0.58;83.12;100990.44;5050840;28;11589;-66
2022/12/10 09:35:39;;;;;;;;;40.75;30.75;;;;;0.58;82.39;100998.38;5048009;28;11661;-62
2022/12/10 09:38:06;;;;;;;;;33.50;27.50;;;;;0.63;82.71;100996.19;5053452;28;11587;-65
2022/12/10 09:40:41;;;;;;;;;32.50;26.00;;;;;0.67;83.16;101000.25;5050931;28;11574;-64
2022/12/10 09:43:19;;;;;;;;;41.75;31.50;;;;;0.64;82.85;100992.56;5045062;28;11571;-66
2022/12/10 09:46:16;;;;;;;;;39.50;27.25;;;;;0.63;82.46;100999.66;5048467;28;11553;-64
2022/12/10 09:49:12;;;;;;;;;31.75;29.25;;;;;0.66;82.25;100998.59;5042478;28;11047;-64
2022/12/10 09:51:40;;;;;;;;;30.50;25.00;;;;;0.64;82.88;101005.81;5045588;28;11753;-66
2022/12/10 09:54:25;;;;;;;;;39.50;33.75;;;;;0.56;82.52;101009.09;5036429;28;11591;-65
2022/12/10 09:56:54;;;;;;;;;41.25;37.50;;;;;0.60;83.08;101012.31;5050392;28;11619;-63
2022/12/10 09:59:32;;;;;;;;;24.50;23.25;;;;;0.62;82.89;101010.41;5039905;28;11699;-66
2022/12/10 10:02:10;;;;;;;;;33.00;30.50;;;;;0.50;82.96;101014.91;5049964;28;12260;-65
2022/12/10 10:04:37;;;;;;;;;35.75;28.75;;;;;0.49;82.94;101014.06;5035230;28;11613;-65
2022/12/10 10:07:05;;;;;;;;;27.50;23.50;;;;;0.51;82.57;101007.78;5049452;28;11570;-71
2022/12/10 10:09:39;;;;;;;;;33.75;30.75;;;;;0.52;82.67;101012.94;5046909;28;11565;-65
2022/12/10 10:12:14;;;;;;;;;26.75;21.50;;;;;0.55;82.78;101014.50;5047900;28;11713;-66
2022/12/10 10:14:42;;;;;;;;;33.50;31.00;;;;;0.60;83.13;101013.16;5048480;28;11539;-66
2022/12/10 10:17:18;;;;;;;;;39.00;29.50;;;;;0.62;82.64;101013.06;5044178;28;11743;-67
2022/12/10 10:19:45;;;;;;;;;30.25;25.50;;;;;0.61;82.74;101014.88;5048518;28;11608;-65
2022/12/10 10:22:11;;;;;;;;;34.25;26.75;;;;;0.56;82.76;101013.53;5037768;28;11666;-66
2022/12/10 10:24:43;;;;;;;;;35.50;26.50;;;;;0.53;83.03;101008.50;5045852;28;11681;-65
2022/12/10 10:27:36;;;;;;;;;28.00;24.50;;;;;0.52;83.01;101020.06;5049531;28;11646;-65
2022/12/10 10:30:04;;;;;;;;;32.00;25.50;;;;;0.48;82.91;101008.88;5033297;28;11697;-64
2022/12/10 10:32:36;;;;;;;;;30.50;27.00;;;;;0.43;82.67;101014.53;5038838;28;11574;-64
2022/12/10 10:35:04;;;;;;;;;32.00;27.50;;;;;0.49;83.28;101015.88;5046303;28;11557;-65
2022/12/10 10:37:33;;;;;;;;;33.50;32.00;;;;;0.44;82.70;101031.25;5048582;28;11561;-66
2022/12/10 10:40:00;;;;;;;;;35.50;32.25;;;;;0.45;83.01;101028.50;5049476;28;11582;-65
2022/12/10 10:42:39;;;;;;;;;31.50;27.25;;;;;0.46;82.84;101024.06;5048006;28;11532;-65
2022/12/10 10:45:38;;;;;;;;;35.50;30.00;;;;;0.44;83.07;101024.16;5048134;28;11582;-64
2022/12/10 10:48:16;;;;;;;;;32.00;29.50;;;;;0.47;82.88;101031.88;5049420;28;11581;-65
2022/12/10 10:50:45;;;;;;;;;35.25;30.75;;;;;0.51;83.02;101019.22;5048128;28;11562;-66
2022/12/10 10:53:43;;;;;;;;;36.75;30.00;;;;;0.55;83.46;101019.81;5040436;28;11607;-67
2022/12/10 10:56:20;;;;;;;;;36.75;30.50;;;;;0.60;83.12;101020.28;5049546;28;11681;-65
2022/12/10 10:59:03;;;;;;;;;38.00;33.75;;;;;0.57;82.48;101020.50;5048007;28;11661;-64
2022/12/10 11:01:53;;;;;;;;;41.50;33.75;;;;;0.60;82.70;101026.41;5046753;28;11552;-67
2022/12/10 11:04:35;;;;;;;;;43.50;37.25;;;;;0.50;82.96;101020.19;5029886;28;11562;-63
2022/12/10 11:07:04;;;;;;;;;38.00;30.75;;;;;0.47;82.83;101020.44;5042561;28;11569;-66
2022/12/10 11:09:36;;;;;;;;;37.75;33.50;;;;;0.47;82.86;101023.91;5043236;28;12277;-64
2022/12/10 11:12:20;;;;;;;;;40.00;30.25;;;;;0.49;83.06;101024.66;5036150;28;12327;-66
2022/12/10 11:14:47;;;;;;;;;37.75;33.25;;;;;0.46;83.04;101016.94;5047581;28;11795;-66
2022/12/10 11:17:22;;;;;;;;;27.00;25.25;;;;;0.48;83.11;101020.28;5048903;28;11595;-63
2022/12/10 11:20:17;;;;;;;;;38.50;29.25;;;;;0.46;82.92;101016.13;5048052;28;11674;-65
2022/12/10 11:23:08;;;;;;;;;28.50;26.50;;;;;0.55;82.97;101023.31;5038541;28;11630;-66
2022/12/10 11:26:02;;;;;;;;;26.25;25.50;;;;;0.60;83.07;101023.75;5046901;28;11565;-67
2022/12/10 11:28:58;;;;;;;;;36.00;29.75;;;;;0.57;83.03;101023.16;5038593;28;11712;-65
2022/12/10 11:31:34;;;;;;;;;39.25;32.50;;;;;0.58;83.21;101022.22;5041675;28;11653;-66
2022/12/10 11:34:12;;;;;;;;;43.50;37.00;;;;;0.56;83.21;101021.50;5039268;28;11560;-67
2022/12/10 11:36:51;;;;;;;;;27.50;27.50;;;;;0.49;83.13;101022.00;5045758;28;11554;-67
2022/12/10 11:39:30;;;;;;;;;45.50;32.25;;;;;0.48;82.81;101015.00;5042546;28;11601;-65
2022/12/10 11:42:13;;;;;;;;;33.25;31.00;;;;;0.49;82.96;101024.66;5042582;28;11626;-65